Pingwu, China
Current Conditions -  °F | °C
As of 12:00 AM on Friday 28 Nov 2014 (Local Time) from ZUUU Reporting Station
Scattered Clouds Scattered Clouds  
Wind Chill: 55°   Ceiling: Unl
Heat Index: 55°   Visibility: 6mi
Dew Point: 43°   Wind: 4mph
Humidity: 63%   Direction: 350°N
Pressure: 30.06"   Gusts: NA
Location:  32.42°N, 104.52°E
Report Text: ZUUU 271600Z 35002MPS 320V020 9999 SCT040 13/06 Q1018 NOSIG
Loading
Personal Weather Stations






























Interactive Weather Map New forecast layout! Learn more

10-Day Weather Forecast

Advertisements
Track Severe Weather on mobile